Time;durP1;ratioP1;P1;durP2;ratioP2;P2;SDS_P1;SDS_P2;PMS_P1;PMS_P2;Temp;Humidity;BMP_temperature;BMP_pressure;BME280_temperature;BME280_humidity;BME280_pressure;Samples;Min_cycle;Max_cycle;Signal;HPM_P1;HPM_P2
2023/11/19 00:00:30;;;;;;;1.13;0.70;;;10.10;99.90;;;;;;6258355;28;20061;-76
2023/11/19 00:03:33;;;;;;;2.38;1.15;;;10.10;99.90;;;;;;6255342;28;20041;-77
2023/11/19 00:06:35;;;;;;;1.90;1.20;;;10.20;99.90;;;;;;6258521;28;20053;-77
2023/11/19 00:09:38;;;;;;;1.10;1.00;;;10.20;99.90;;;;;;6247403;28;20045;-76
2023/11/19 00:12:41;;;;;;;2.70;0.88;;;10.20;99.90;;;;;;6263215;28;20506;-77
2023/11/19 00:15:43;;;;;;;1.70;1.05;;;10.20;99.90;;;;;;6266037;28;20049;-77
2023/11/19 00:18:44;;;;;;;1.00;0.88;;;10.30;99.90;;;;;;6264230;28;20049;-78
2023/11/19 00:21:46;;;;;;;1.27;0.95;;;10.30;99.90;;;;;;6265589;28;20445;-78
2023/11/19 00:24:49;;;;;;;1.92;1.02;;;10.30;99.90;;;;;;6264796;28;20128;-77
2023/11/19 00:27:53;;;;;;;0.95;0.93;;;10.40;99.90;;;;;;6256809;28;20045;-77
2023/11/19 00:30:55;;;;;;;1.17;1.08;;;10.40;99.90;;;;;;6264259;28;20079;-77
2023/11/19 00:33:57;;;;;;;2.03;0.90;;;10.40;99.90;;;;;;6264781;28;20080;-77
2023/11/19 00:36:58;;;;;;;0.90;0.80;;;10.40;99.90;;;;;;6239990;28;20442;-77
2023/11/19 00:40:05;;;;;;;3.15;1.05;;;10.50;99.90;;;;;;6238618;28;20042;-77
2023/11/19 00:43:07;;;;;;;0.70;0.70;;;10.50;99.90;;;;;;6223834;28;20789;-76
2023/11/19 00:46:10;;;;;;;0.85;0.68;;;10.50;99.90;;;;;;6224136;28;20411;-76
2023/11/19 00:49:12;;;;;;;0.77;0.63;;;10.50;99.90;;;;;;6233008;28;20062;-76
2023/11/19 00:52:14;;;;;;;2.63;0.77;;;10.60;99.90;;;;;;6224307;28;20045;-76
2023/11/19 00:55:17;;;;;;;1.42;0.60;;;10.60;99.90;;;;;;6224593;28;20045;-77
2023/11/19 00:58:19;;;;;;;2.33;0.77;;;10.60;99.90;;;;;;6228481;28;20045;-77
2023/11/19 01:01:21;;;;;;;1.23;0.75;;;10.60;99.90;;;;;;6241287;28;20053;-77
2023/11/19 01:04:23;;;;;;;0.85;0.60;;;10.60;99.90;;;;;;6237296;28;20038;-77
2023/11/19 01:07:26;;;;;;;1.15;0.63;;;10.60;99.90;;;;;;6240659;28;20557;-75
2023/11/19 01:10:29;;;;;;;0.73;0.73;;;10.70;99.90;;;;;;6224472;28;20046;-77
2023/11/19 01:13:31;;;;;;;0.70;0.70;;;10.70;99.90;;;;;;6244870;28;20049;-75
2023/11/19 01:16:32;;;;;;;1.23;0.90;;;10.70;99.90;;;;;;6241315;28;20053;-78
2023/11/19 01:19:34;;;;;;;4.47;1.23;;;10.70;99.90;;;;;;6245340;28;20055;-77
2023/11/19 01:22:36;;;;;;;2.05;1.35;;;10.80;99.90;;;;;;6223442;28;20058;-76
2023/11/19 01:25:39;;;;;;;0.75;0.60;;;10.80;99.90;;;;;;6222157;28;20046;-77
2023/11/19 01:28:44;;;;;;;0.88;0.65;;;10.80;99.90;;;;;;6227122;28;20049;-77
2023/11/19 01:31:47;;;;;;;0.80;0.80;;;10.80;99.90;;;;;;6231023;28;20060;-76
2023/11/19 01:34:49;;;;;;;1.20;0.80;;;10.80;99.90;;;;;;6222184;28;20050;-76
2023/11/19 01:37:51;;;;;;;0.93;0.70;;;10.80;99.90;;;;;;6222871;28;20056;-76
2023/11/19 01:40:58;;;;;;;1.38;0.90;;;10.80;99.90;;;;;;6222138;28;20462;-77
2023/11/19 01:44:00;;;;;;;2.65;0.75;;;10.90;99.90;;;;;;6221420;28;20052;-77
2023/11/19 01:47:03;;;;;;;0.95;0.77;;;10.90;99.90;;;;;;6221479;28;20502;-77
2023/11/19 01:50:08;;;;;;;1.52;0.73;;;10.90;99.90;;;;;;6224125;28;20129;-77
2023/11/19 01:53:10;;;;;;;4.35;0.68;;;10.90;99.90;;;;;;6236320;28;20525;-75
2023/11/19 01:56:15;;;;;;;1.95;1.27;;;10.90;99.90;;;;;;6220940;28;20046;-78
2023/11/19 01:59:18;;;;;;;2.10;0.90;;;10.90;99.90;;;;;;6241480;28;20045;-78
2023/11/19 02:02:20;;;;;;;0.75;0.73;;;10.90;99.90;;;;;;6244131;28;20052;-78
2023/11/19 02:05:23;;;;;;;3.08;1.27;;;10.90;99.90;;;;;;6254377;28;20045;-77
2023/11/19 02:08:24;;;;;;;2.25;1.20;;;11.00;99.90;;;;;;6245489;28;20057;-77
2023/11/19 02:11:29;;;;;;;2.42;0.90;;;11.00;99.90;;;;;;6246148;28;20407;-75
2023/11/19 02:14:31;;;;;;;1.00;0.90;;;11.00;99.90;;;;;;6246050;28;20056;-76
2023/11/19 02:17:34;;;;;;;2.67;1.35;;;11.00;99.90;;;;;;6246866;28;20054;-76
2023/11/19 02:20:35;;;;;;;1.75;1.42;;;11.10;99.90;;;;;;6245057;28;20056;-76
2023/11/19 02:23:37;;;;;;;1.55;1.05;;;11.00;99.90;;;;;;6261887;28;20045;-77
2023/11/19 02:26:48;;;;;;;1.50;1.13;;;11.10;99.90;;;;;;6245922;28;20041;-77
2023/11/19 02:29:51;;;;;;;1.95;1.35;;;11.00;99.90;;;;;;6246518;28;20050;-77
2023/11/19 02:32:54;;;;;;;6.50;2.67;;;11.00;99.90;;;;;;6244462;28;20073;-78
2023/11/19 02:35:56;;;;;;;1.40;1.23;;;11.00;99.90;;;;;;6269788;28;20044;-77
2023/11/19 02:38:57;;;;;;;1.58;1.48;;;11.10;99.90;;;;;;6270035;28;20541;-77
2023/11/19 02:41:59;;;;;;;2.38;1.65;;;11.10;99.90;;;;;;6245256;28;20103;-75
2023/11/19 02:45:05;;;;;;;1.60;1.48;;;11.10;99.90;;;;;;6244520;28;20172;-76
2023/11/19 02:48:08;;;;;;;5.80;1.63;;;11.20;99.90;;;;;;6245656;28;20128;-76
2023/11/19 02:51:10;;;;;;;2.17;1.50;;;11.20;99.90;;;;;;6245566;28;20060;-77
2023/11/19 02:54:12;;;;;;;2.90;1.90;;;11.20;99.90;;;;;;6255953;28;20060;-78
2023/11/19 02:57:14;;;;;;;2.92;1.40;;;11.20;99.90;;;;;;6251468;28;20041;-78
2023/11/19 03:00:18;;;;;;;1.58;1.48;;;11.20;99.90;;;;;;6244977;28;20056;-75
2023/11/19 03:03:22;;;;;;;1.90;1.70;;;11.20;99.90;;;;;;6245407;28;20054;-77
2023/11/19 03:06:24;;;;;;;6.80;2.03;;;11.20;99.90;;;;;;6244875;28;20521;-79
2023/11/19 03:09:25;;;;;;;2.22;1.90;;;11.20;99.90;;;;;;6265295;28;20608;-76
2023/11/19 03:12:27;;;;;;;4.43;1.80;;;11.20;99.90;;;;;;6249469;28;20041;-77
2023/11/19 03:15:31;;;;;;;1.85;1.67;;;11.30;99.90;;;;;;6257065;28;20047;-76
2023/11/19 03:18:32;;;;;;;3.58;1.92;;;11.20;99.90;;;;;;6252580;28;20053;-78
2023/11/19 03:21:34;;;;;;;2.25;1.13;;;11.20;99.90;;;;;;6270531;28;20060;-77
2023/11/19 03:24:36;;;;;;;4.20;2.13;;;11.30;99.90;;;;;;6256227;28;20054;-77
2023/11/19 03:27:39;;;;;;;2.20;1.92;;;11.30;99.90;;;;;;6253436;28;20057;-76
2023/11/19 03:30:42;;;;;;;3.35;1.50;;;11.30;99.90;;;;;;6261005;28;20049;-78
2023/11/19 03:33:45;;;;;;;3.30;2.15;;;11.30;99.90;;;;;;6261690;28;20134;-78
2023/11/19 03:36:46;;;;;;;3.25;1.52;;;11.30;99.90;;;;;;6264294;28;20049;-77
2023/11/19 03:39:48;;;;;;;5.45;2.08;;;11.30;99.90;;;;;;6257690;28;20052;-78
2023/11/19 03:42:50;;;;;;;3.47;1.48;;;11.30;99.90;;;;;;6262914;28;20041;-77
2023/11/19 03:45:53;;;;;;;3.90;1.30;;;11.30;99.90;;;;;;6252465;28;20049;-77
2023/11/19 03:48:54;;;;;;;1.80;1.50;;;11.40;99.90;;;;;;6276888;28;20071;-80
2023/11/19 03:51:56;;;;;;;1.17;1.08;;;11.30;99.90;;;;;;6275543;28;20037;-79
2023/11/19 03:54:58;;;;;;;4.50;1.45;;;11.40;99.90;;;;;;6279300;28;20037;-80
2023/11/19 03:58:00;;;;;;;2.75;2.28;;;11.40;99.90;;;;;;6286735;28;20037;-79
2023/11/19 04:01:03;;;;;;;1.83;1.45;;;11.40;99.90;;;;;;6287893;28;20049;-77
2023/11/19 04:04:06;;;;;;;2.42;1.58;;;11.40;99.90;;;;;;6268148;28;20049;-78
2023/11/19 04:07:07;;;;;;;3.03;1.80;;;11.40;99.90;;;;;;6267871;28;20414;-77
2023/11/19 04:10:09;;;;;;;1.88;1.20;;;11.40;99.90;;;;;;6276318;28;20052;-76
2023/11/19 04:13:12;;;;;;;2.42;1.92;;;11.40;99.90;;;;;;6275031;28;20045;-77
2023/11/19 04:16:15;;;;;;;1.77;1.42;;;11.50;99.90;;;;;;6274816;28;20114;-77
2023/11/19 04:19:17;;;;;;;3.15;1.70;;;11.50;99.90;;;;;;6273243;28;20037;-77
2023/11/19 04:22:19;;;;;;;1.50;1.20;;;11.50;99.90;;;;;;6250743;28;20064;-77
2023/11/19 04:25:20;;;;;;;1.40;1.20;;;11.50;99.90;;;;;;6261299;28;20045;-78
2023/11/19 04:28:22;;;;;;;1.67;1.10;;;11.50;99.90;;;;;;6275270;28;20041;-78
2023/11/19 04:31:31;;;;;;;2.88;1.30;;;11.50;99.90;;;;;;6265351;28;20045;-77
2023/11/19 04:34:32;;;;;;;1.38;1.00;;;11.50;99.90;;;;;;6262357;28;20414;-77
2023/11/19 04:37:34;;;;;;;2.65;1.20;;;11.60;99.90;;;;;;6276112;28;20044;-78
2023/11/19 04:40:36;;;;;;;1.30;1.20;;;11.60;99.90;;;;;;6266587;28;20079;-77
2023/11/19 04:43:37;;;;;;;1.77;1.30;;;11.60;99.90;;;;;;6266928;28;20045;-77
2023/11/19 04:46:40;;;;;;;1.65;1.20;;;11.60;99.90;;;;;;6266129;28;20048;-78
2023/11/19 04:49:43;;;;;;;1.77;1.25;;;11.70;99.90;;;;;;6270859;28;20055;-77
2023/11/19 04:52:45;;;;;;;1.38;1.25;;;11.70;99.90;;;;;;6267207;28;20077;-77
2023/11/19 04:55:47;;;;;;;0.73;0.68;;;11.80;99.90;;;;;;6263742;28;20072;-77
2023/11/19 04:58:49;;;;;;;1.73;1.50;;;11.80;99.90;;;;;;6275237;28;20041;-78
2023/11/19 05:01:52;;;;;;;1.58;1.00;;;11.80;99.90;;;;;;6272113;28;20048;-77
2023/11/19 05:04:54;;;;;;;1.23;0.93;;;11.90;99.90;;;;;;6267681;28;20048;-77
2023/11/19 05:07:56;;;;;;;1.70;0.70;;;11.90;99.90;;;;;;6250136;28;20506;-77
2023/11/19 05:10:59;;;;;;;2.05;1.30;;;11.90;99.90;;;;;;6273924;28;20132;-78
2023/11/19 05:14:01;;;;;;;1.45;1.00;;;12.00;99.90;;;;;;6274803;28;20049;-77
2023/11/19 05:17:04;;;;;;;4.32;0.80;;;12.00;99.90;;;;;;6266844;28;20041;-77
2023/11/19 05:20:12;;;;;;;1.95;1.30;;;12.00;99.90;;;;;;6273987;28;20524;-78
2023/11/19 05:23:14;;;;;;;1.42;0.80;;;12.10;99.90;;;;;;6274499;28;20041;-77
2023/11/19 05:26:20;;;;;;;1.58;1.15;;;12.10;99.90;;;;;;6272971;28;20136;-78
2023/11/19 05:29:22;;;;;;;0.55;0.55;;;12.10;99.90;;;;;;6258521;28;20051;-77
2023/11/19 05:32:25;;;;;;;3.55;2.45;;;12.20;99.90;;;;;;6265774;28;20042;-77
2023/11/19 05:35:26;;;;;;;2.60;0.70;;;12.20;99.90;;;;;;6265757;28;20064;-77
2023/11/19 05:38:28;;;;;;;0.50;0.50;;;12.20;99.90;;;;;;6274032;28;20429;-78
2023/11/19 05:41:30;;;;;;;1.38;0.77;;;12.20;99.90;;;;;;6270215;28;20080;-78
2023/11/19 05:44:32;;;;;;;0.82;0.80;;;12.30;99.90;;;;;;6260344;28;20532;-77
2023/11/19 05:47:35;;;;;;;0.77;0.60;;;12.30;99.90;;;;;;6265881;28;20552;-80
2023/11/19 05:50:37;;;;;;;0.93;0.82;;;12.30;99.90;;;;;;6274108;28;20051;-77
2023/11/19 05:53:38;;;;;;;1.02;0.60;;;12.40;99.90;;;;;;6274797;28;20508;-78
2023/11/19 05:56:40;;;;;;;0.50;0.50;;;12.40;99.90;;;;;;6273457;28;20429;-78
2023/11/19 05:59:43;;;;;;;1.08;0.73;;;12.40;99.90;;;;;;6273272;28;20094;-77
2023/11/19 06:02:46;;;;;;;1.25;0.70;;;12.40;99.90;;;;;;6256710;28;20587;-78
2023/11/19 06:05:48;;;;;;;1.05;0.60;;;12.50;99.90;;;;;;6266238;28;20059;-77
2023/11/19 06:08:50;;;;;;;1.00;0.70;;;12.50;99.90;;;;;;6271673;28;20187;-77
2023/11/19 06:11:52;;;;;;;0.50;0.50;;;12.50;99.90;;;;;;6271991;28;20048;-77
2023/11/19 06:14:54;;;;;;;0.90;0.82;;;12.50;99.90;;;;;;6271544;28;20391;-77
2023/11/19 06:17:59;;;;;;;0.95;0.50;;;12.50;99.90;;;;;;6271847;28;20071;-77
2023/11/19 06:21:01;;;;;;;2.60;0.45;;;12.50;99.90;;;;;;6256708;28;20124;-80
2023/11/19 06:24:03;;;;;;;2.70;0.63;;;12.50;99.90;;;;;;6273772;28;20044;-79
2023/11/19 06:27:05;;;;;;;1.13;0.57;;;12.50;99.90;;;;;;6274449;28;20414;-80
2023/11/19 06:30:08;;;;;;;5.97;0.70;;;12.50;99.90;;;;;;6274830;28;20048;-80
2023/11/19 06:33:14;;;;;;;0.50;0.50;;;12.50;99.90;;;;;;6274214;28;20417;-80
2023/11/19 06:36:17;;;;;;;0.55;0.55;;;12.50;99.90;;;;;;6262906;28;20132;-77
2023/11/19 06:39:19;;;;;;;0.50;0.50;;;12.60;99.90;;;;;;6263658;28;20045;-77
2023/11/19 06:42:21;;;;;;;1.08;0.77;;;12.60;99.90;;;;;;6265055;28;20045;-77
2023/11/19 06:45:23;;;;;;;1.23;0.55;;;12.60;99.90;;;;;;6272167;28;20060;-78
2023/11/19 06:48:26;;;;;;;1.95;0.50;;;12.60;99.90;;;;;;6263945;28;20045;-78
2023/11/19 06:51:28;;;;;;;1.15;0.65;;;12.70;99.90;;;;;;6272609;28;20045;-77
2023/11/19 06:54:29;;;;;;;0.52;0.50;;;12.70;99.90;;;;;;6263263;28;20060;-78
2023/11/19 06:57:32;;;;;;;1.05;0.60;;;12.70;99.90;;;;;;6270279;28;20042;-78
2023/11/19 07:00:35;;;;;;;1.65;0.70;;;12.70;99.90;;;;;;6264877;28;20111;-78
2023/11/19 07:03:38;;;;;;;0.70;0.70;;;12.80;99.90;;;;;;6272783;28;20047;-77
2023/11/19 07:06:41;;;;;;;0.50;0.50;;;12.80;99.90;;;;;;6271297;28;20658;-77
2023/11/19 07:09:43;;;;;;;3.40;0.60;;;12.90;99.90;;;;;;6273066;28;20418;-77
2023/11/19 07:12:44;;;;;;;0.40;0.40;;;12.90;99.90;;;;;;6235177;28;20063;-77
2023/11/19 07:15:46;;;;;;;1.88;0.47;;;12.90;99.90;;;;;;6269627;28;20052;-77
2023/11/19 07:18:50;;;;;;;0.82;0.65;;;12.90;99.90;;;;;;6274840;28;20045;-78
2023/11/19 07:21:54;;;;;;;1.33;0.50;;;12.90;99.90;;;;;;6274407;28;20048;-77
2023/11/19 07:24:55;;;;;;;0.88;0.40;;;12.90;99.90;;;;;;6275989;28;20049;-76
2023/11/19 07:27:57;;;;;;;1.85;0.60;;;12.90;99.90;;;;;;6276430;28;20045;-77
2023/11/19 07:30:59;;;;;;;0.80;0.80;;;12.90;99.90;;;;;;6271852;28;20043;-78
2023/11/19 07:34:03;;;;;;;0.77;0.60;;;12.90;99.90;;;;;;6277752;28;20053;-77
2023/11/19 07:37:05;;;;;;;0.88;0.50;;;12.90;99.90;;;;;;6258735;28;20072;-77
2023/11/19 07:40:08;;;;;;;0.73;0.45;;;12.90;99.90;;;;;;6259563;28;20113;-77
2023/11/19 07:43:10;;;;;;;0.47;0.40;;;13.00;99.90;;;;;;6260729;28;20052;-78
2023/11/19 07:46:13;;;;;;;4.25;0.57;;;13.00;99.90;;;;;;6262062;28;20056;-77
2023/11/19 07:49:16;;;;;;;2.08;0.25;;;13.00;99.90;;;;;;6258671;28;20048;-78
2023/11/19 07:52:18;;;;;;;0.30;0.30;;;13.00;99.90;;;;;;6260946;28;20040;-77
2023/11/19 07:55:21;;;;;;;2.35;0.50;;;13.10;99.90;;;;;;6258383;28;20044;-77
2023/11/19 07:58:22;;;;;;;0.77;0.38;;;13.10;99.90;;;;;;6259080;28;20057;-79
2023/11/19 08:01:24;;;;;;;0.75;0.60;;;13.20;99.90;;;;;;6268890;28;20068;-78
2023/11/19 08:04:27;;;;;;;0.93;0.68;;;13.20;99.90;;;;;;6261008;28;20064;-80
2023/11/19 08:07:29;;;;;;;4.25;3.08;;;13.10;99.90;;;;;;6258937;28;20057;-77
2023/11/19 08:10:33;;;;;;;1.38;0.57;;;13.10;99.90;;;;;;6257378;28;20060;-76
2023/11/19 08:13:34;;;;;;;4.88;2.35;;;13.10;99.90;;;;;;6258118;28;20071;-76
2023/11/19 08:16:37;;;;;;;21.60;17.50;;;13.10;99.90;;;;;;6255028;28;20045;-76
2023/11/19 08:19:40;;;;;;;53.15;36.22;;;13.10;99.90;;;;;;6258660;28;20068;-78
2023/11/19 08:22:42;;;;;;;56.28;41.53;;;13.20;99.90;;;;;;6255526;28;20045;-77
2023/11/19 08:25:44;;;;;;;31.73;25.23;;;13.20;99.90;;;;;;6255173;28;20055;-77
2023/11/19 08:28:45;;;;;;;15.48;13.25;;;13.20;99.90;;;;;;6256297;28;20037;-77
2023/11/19 08:31:47;;;;;;;2.28;2.08;;;13.20;99.90;;;;;;6251718;28;20060;-77
2023/11/19 08:34:50;;;;;;;16.05;12.82;;;13.30;99.90;;;;;;6254232;28;20041;-77
2023/11/19 08:37:53;;;;;;;7.90;7.18;;;13.30;99.90;;;;;;6255149;28;20429;-76
2023/11/19 08:40:59;;;;;;;57.42;45.85;;;13.40;99.90;;;;;;6258714;28;20052;-77
2023/11/19 08:44:01;;;;;;;57.25;43.10;;;13.40;99.90;;;;;;6260947;28;20049;-77
2023/11/19 08:47:03;;;;;;;32.80;23.58;;;13.50;99.90;;;;;;6258918;28;20069;-77
2023/11/19 08:50:08;;;;;;;20.65;18.98;;;13.60;99.90;;;;;;6261336;28;20048;-79
2023/11/19 08:53:09;;;;;;;4.57;4.20;;;13.50;99.90;;;;;;6261729;28;20057;-78
2023/11/19 08:56:11;;;;;;;1.50;1.40;;;13.50;99.90;;;;;;6261081;28;20714;-77
2023/11/19 08:59:15;;;;;;;4.82;2.60;;;13.40;99.90;;;;;;6262170;28;20041;-78
2023/11/19 09:02:16;;;;;;;1.17;1.02;;;13.40;99.90;;;;;;6268195;28;20083;-77
2023/11/19 09:05:21;;;;;;;1.77;1.65;;;13.30;99.90;;;;;;6265976;28;20183;-77
2023/11/19 09:08:23;;;;;;;1.77;1.52;;;13.30;99.90;;;;;;6266478;28;20059;-77
2023/11/19 09:11:24;;;;;;;2.42;0.63;;;13.30;99.90;;;;;;6260304;28;20052;-77
2023/11/19 09:14:26;;;;;;;1.58;1.17;;;13.30;99.90;;;;;;6260372;28;20041;-77
2023/11/19 09:17:28;;;;;;;2.15;1.30;;;13.30;99.90;;;;;;6260940;28;20060;-76
2023/11/19 09:20:37;;;;;;;3.35;1.40;;;13.30;99.90;;;;;;6261798;28;20084;-77
2023/11/19 09:23:39;;;;;;;4.13;1.63;;;13.30;99.90;;;;;;6260005;28;20060;-78
2023/11/19 09:26:41;;;;;;;0.75;0.63;;;13.30;99.90;;;;;;6259524;28;21340;-76
2023/11/19 09:29:43;;;;;;;2.30;1.70;;;13.30;99.90;;;;;;6258815;28;20129;-77
2023/11/19 09:32:45;;;;;;;6.28;2.45;;;13.30;99.90;;;;;;6259567;28;20052;-77
2023/11/19 09:35:49;;;;;;;10.57;7.45;;;13.40;99.90;;;;;;6258360;28;20049;-77
2023/11/19 09:38:51;;;;;;;5.53;3.13;;;13.50;99.90;;;;;;6254591;28;20037;-77
2023/11/19 09:41:53;;;;;;;1.13;0.90;;;13.80;99.90;;;;;;6258276;28;20049;-79
2023/11/19 09:44:57;;;;;;;10.30;8.18;;;13.90;99.90;;;;;;6257026;28;20044;-76
2023/11/19 09:48:02;;;;;;;4.68;1.38;;;14.10;99.90;;;;;;6257371;28;20053;-78
2023/11/19 09:51:06;;;;;;;7.20;2.08;;;14.30;99.90;;;;;;6256975;28;20037;-77
2023/11/19 09:54:07;;;;;;;1.58;0.93;;;14.50;99.90;;;;;;6264498;22;20045;-77
2023/11/19 09:57:11;;;;;;;2.35;1.45;;;14.60;99.90;;;;;;6277515;28;20413;-79
2023/11/19 10:00:16;;;;;;;1.10;0.50;;;14.60;99.90;;;;;;6276518;28;20037;-78
2023/11/19 10:03:18;;;;;;;1.70;1.60;;;14.70;99.90;;;;;;6272777;28;20049;-79
2023/11/19 10:06:21;;;;;;;1.55;0.75;;;14.70;99.90;;;;;;6277419;28;20486;-78
2023/11/19 10:09:23;;;;;;;3.45;1.13;;;14.70;99.90;;;;;;6274897;28;20081;-79
2023/11/19 10:12:25;;;;;;;1.00;0.70;;;14.80;99.90;;;;;;6279055;28;20055;-78
2023/11/19 10:15:27;;;;;;;6.60;3.85;;;15.10;99.90;;;;;;6270852;28;20068;-78
2023/11/19 10:18:28;;;;;;;7.88;6.93;;;15.40;99.90;;;;;;6259120;28;20046;-79
2023/11/19 10:21:33;;;;;;;11.98;9.43;;;15.40;99.90;;;;;;6263312;28;20053;-78
2023/11/19 10:24:37;;;;;;;5.97;5.03;;;15.40;99.90;;;;;;6263535;28;20409;-78
2023/11/19 10:27:39;;;;;;;1.50;1.20;;;15.70;99.90;;;;;;6271581;28;20033;-79
2023/11/19 10:30:42;;;;;;;1.00;0.85;;;16.00;99.90;;;;;;6270418;28;20446;-76
2023/11/19 10:33:44;;;;;;;2.17;1.02;;;16.30;99.90;;;;;;6256055;28;20398;-77
2023/11/19 10:36:48;;;;;;;6.05;4.18;;;16.50;99.90;;;;;;6258270;28;20044;-79
2023/11/19 10:39:54;;;;;;;1.73;1.02;;;16.60;99.90;;;;;;6257450;28;20045;-79
2023/11/19 10:43:03;;;;;;;3.97;1.33;;;16.50;99.90;;;;;;6270376;28;20037;-79
2023/11/19 10:46:13;;;;;;;1.13;0.80;;;16.60;99.90;;;;;;6287559;22;20049;-81
2023/11/19 10:49:14;;;;;;;4.00;1.17;;;16.60;99.90;;;;;;6250947;28;20041;-80
2023/11/19 10:52:20;;;;;;;1.85;1.45;;;16.50;99.90;;;;;;6271899;28;20060;-80
2023/11/19 10:55:27;;;;;;;1.75;0.80;;;16.30;99.90;;;;;;6280233;28;20041;-80
2023/11/19 10:58:32;;;;;;;1.38;1.27;;;16.10;99.90;;;;;;6279540;28;20119;-80
2023/11/19 11:01:41;;;;;;;2.45;1.17;;;16.00;99.90;;;;;;6269126;28;20053;-80
2023/11/19 11:04:43;;;;;;;3.55;2.38;;;16.10;99.90;;;;;;6276004;28;20477;-81
2023/11/19 11:07:46;;;;;;;3.75;0.88;;;16.10;99.90;;;;;;6273590;28;20051;-81
2023/11/19 11:10:53;;;;;;;1.48;0.95;;;16.10;99.90;;;;;;6225807;28;20486;-80
2023/11/19 11:13:58;;;;;;;3.77;0.80;;;16.10;99.90;;;;;;6274170;28;20417;-82
2023/11/19 11:17:02;;;;;;;1.27;0.90;;;16.20;99.90;;;;;;6285639;28;20041;-79
2023/11/19 11:24:24;;;;;;;0.95;0.93;;;16.80;99.90;;;;;;6264338;28;20065;-80
2023/11/19 11:27:59;;;;;;;1.70;1.35;;;17.20;99.90;;;;;;6266519;28;20041;-81
2023/11/19 11:31:26;;;;;;;1.58;1.20;;;17.10;99.90;;;;;;6266318;28;20060;-80
2023/11/19 11:34:53;;;;;;;1.27;0.90;;;16.80;99.90;;;;;;6264398;28;20108;-80
2023/11/19 11:38:08;;;;;;;2.85;0.93;;;16.70;99.90;;;;;;6243326;28;20037;-80
2023/11/19 11:41:20;;;;;;;2.92;1.10;;;16.70;99.90;;;;;;6268554;28;20055;-81
2023/11/19 11:45:04;;;;;;;1.75;0.82;;;17.00;99.90;;;;;;6270224;28;20096;-82
2023/11/19 11:48:17;;;;;;;2.08;1.38;;;17.30;99.90;;;;;;6259115;28;20046;-80
2023/11/19 11:52:01;;;;;;;1.95;1.38;;;17.60;99.90;;;;;;6246165;28;20077;-83
2023/11/19 11:55:09;;;;;;;1.55;0.90;;;17.60;99.90;;;;;;6245574;28;20386;-81
2023/11/19 11:58:12;;;;;;;2.08;1.20;;;17.50;99.90;;;;;;6247085;28;20053;-80
2023/11/19 12:01:20;;;;;;;1.23;0.80;;;17.40;99.90;;;;;;6253909;28;20057;-78
2023/11/19 12:04:22;;;;;;;2.00;1.00;;;17.30;99.90;;;;;;6266999;28;20041;-80
2023/11/19 12:07:25;;;;;;;4.40;0.95;;;17.10;99.90;;;;;;6286599;28;20101;-80
2023/11/19 12:10:27;;;;;;;1.95;1.15;;;16.80;99.90;;;;;;6281109;28;20045;-80
2023/11/19 12:13:55;;;;;;;5.60;1.70;;;16.60;99.90;;;;;;6290714;28;20143;-80
2023/11/19 12:17:04;;;;;;;1.63;0.82;;;16.80;99.90;;;;;;6270310;28;20045;-80
2023/11/19 12:20:08;;;;;;;1.95;0.98;;;17.20;99.90;;;;;;6275383;28;20057;-79
2023/11/19 12:23:10;;;;;;;1.83;0.80;;;17.60;99.90;;;;;;6266729;28;20052;-80
2023/11/19 12:26:31;;;;;;;1.98;1.15;;;18.00;99.90;;;;;;6266174;28;20400;-78
2023/11/19 12:29:44;;;;;;;3.58;1.30;;;18.40;99.90;;;;;;6265735;28;20112;-82
2023/11/19 12:32:46;;;;;;;3.08;1.35;;;18.50;99.90;;;;;;6262292;28;20422;-82
2023/11/19 12:35:49;;;;;;;1.17;0.75;;;18.40;99.90;;;;;;6266619;28;20056;-81
2023/11/19 12:38:51;;;;;;;4.80;1.00;;;18.40;99.90;;;;;;6274886;28;20515;-80
2023/11/19 12:41:54;;;;;;;1.58;0.80;;;18.20;99.90;;;;;;6281696;28;20055;-82
2023/11/19 12:44:57;;;;;;;2.28;1.35;;;18.10;99.90;;;;;;6275548;28;20057;-84
2023/11/19 12:48:06;;;;;;;42.22;37.72;;;17.90;99.90;;;;;;6259796;28;20041;-81
2023/11/19 12:51:08;;;;;;;1.85;1.75;;;17.70;99.90;;;;;;6268832;28;20115;-81
2023/11/19 12:54:10;;;;;;;3.28;2.30;;;17.50;99.90;;;;;;6280252;28;20051;-81
2023/11/19 12:57:11;;;;;;;21.42;15.70;;;17.40;99.90;;;;;;6274994;28;20045;-82
2023/11/19 13:00:22;;;;;;;3.05;2.75;;;17.40;99.90;;;;;;6249992;28;20037;-80
2023/11/19 13:03:31;;;;;;;49.67;37.00;;;17.40;99.90;;;;;;6239602;28;20043;-80
2023/11/19 13:06:33;;;;;;;65.03;46.42;;;17.50;99.90;;;;;;6241461;28;20068;-80
2023/11/19 13:09:34;;;;;;;8.10;6.25;;;17.80;99.90;;;;;;6245947;28;20058;-80
2023/11/19 13:12:36;;;;;;;19.90;16.20;;;18.00;99.90;;;;;;6239660;28;20059;-80
2023/11/19 13:15:39;;;;;;;2.47;1.70;;;17.90;99.90;;;;;;6246340;28;20042;-82
2023/11/19 13:18:41;;;;;;;8.60;7.25;;;18.10;99.90;;;;;;6248336;28;20048;-78
2023/11/19 13:21:45;;;;;;;5.10;4.60;;;18.20;99.90;;;;;;6272079;28;20051;-80
2023/11/19 13:24:47;;;;;;;6.55;2.33;;;18.30;99.90;;;;;;6254430;28;20053;-81
2023/11/19 13:27:49;;;;;;;1.60;0.77;;;18.30;99.90;;;;;;6247708;28;20049;-79
2023/11/19 13:30:53;;;;;;;4.13;1.45;;;18.40;99.90;;;;;;6240714;28;20045;-81
2023/11/19 13:33:55;;;;;;;3.65;1.40;;;18.50;99.90;;;;;;6236684;28;20084;-80
2023/11/19 13:36:56;;;;;;;3.75;0.80;;;18.60;99.90;;;;;;6239759;28;20046;-80
2023/11/19 13:39:58;;;;;;;3.70;0.85;;;18.60;99.90;;;;;;6237038;28;20054;-80
2023/11/19 13:43:00;;;;;;;1.88;0.93;;;18.50;99.90;;;;;;6237183;28;20052;-80
2023/11/19 13:46:03;;;;;;;2.92;0.95;;;18.50;99.90;;;;;;6242136;28;20056;-80
2023/11/19 13:49:05;;;;;;;2.97;2.25;;;18.40;99.90;;;;;;6267593;28;20060;-79
2023/11/19 13:52:07;;;;;;;1.27;1.15;;;18.10;99.90;;;;;;6268586;28;20636;-80
2023/11/19 13:59:15;;;;;;;3.45;1.42;;;17.40;99.90;;;;;;6259938;28;20041;-80
2023/11/19 14:02:18;;;;;;;1.48;1.38;;;17.00;99.90;;;;;;6235491;28;20051;-80
2023/11/19 14:05:19;;;;;;;4.25;0.77;;;16.70;99.90;;;;;;6240961;28;20056;-83
2023/11/19 14:08:21;;;;;;;1.88;0.63;;;16.50;99.90;;;;;;6240137;28;20576;-81
2023/11/19 14:11:23;;;;;;;1.60;1.10;;;16.40;99.90;;;;;;6244342;28;20046;-79
2023/11/19 14:14:25;;;;;;;1.75;0.80;;;16.30;99.90;;;;;;6243203;28;20050;-81
2023/11/19 14:17:28;;;;;;;1.80;1.00;;;16.30;99.90;;;;;;6243331;28;20057;-81
2023/11/19 14:20:29;;;;;;;4.18;0.90;;;16.30;99.90;;;;;;6260180;28;20068;-78
2023/11/19 14:23:31;;;;;;;3.80;0.90;;;16.30;99.90;;;;;;6253247;28;20063;-80
2023/11/19 14:26:49;;;;;;;2.83;1.10;;;16.40;99.90;;;;;;6238739;28;20425;-80
2023/11/19 14:49:49;;;;;;;2.00;1.10;;;16.90;99.90;;;;;;6268058;28;20037;-82
2023/11/19 15:09:21;;;;;;;1.85;1.10;;;15.90;99.90;;;;;;6262395;28;20037;-84
2023/11/19 15:13:02;;;;;;;1.50;1.00;;;15.70;99.90;;;;;;6253215;28;20507;-81
2023/11/19 15:23:58;;;;;;;1.35;0.85;;;15.30;99.90;;;;;;6237970;28;20056;-82
2023/11/19 15:31:40;;;;;;;2.13;1.13;;;15.00;99.90;;;;;;6257101;28;20026;-80
2023/11/19 15:38:40;;;;;;;2.30;1.05;;;14.70;99.90;;;;;;6244091;28;20132;-78
2023/11/19 15:41:42;;;;;;;3.53;1.20;;;14.60;99.90;;;;;;6243944;28;20049;-80
2023/11/19 15:44:45;;;;;;;1.10;0.90;;;14.50;99.90;;;;;;6267924;28;20045;-78
2023/11/19 15:47:47;;;;;;;1.08;1.08;;;14.50;99.90;;;;;;6269878;28;20045;-81
2023/11/19 15:50:48;;;;;;;4.22;1.95;;;14.50;99.90;;;;;;6274357;28;20441;-80
2023/11/19 15:53:51;;;;;;;2.42;0.93;;;14.50;99.90;;;;;;6268208;28;20048;-80
2023/11/19 15:56:53;;;;;;;5.50;0.80;;;14.40;99.90;;;;;;6270694;28;20079;-78
2023/11/19 15:59:55;;;;;;;6.75;1.08;;;14.40;99.90;;;;;;6276320;28;20037;-79
2023/11/19 16:02:57;;;;;;;1.88;0.85;;;14.40;99.90;;;;;;6270989;28;20037;-81
2023/11/19 16:06:43;;;;;;;1.60;1.00;;;14.30;99.90;;;;;;6270562;28;20051;-81
2023/11/19 16:09:46;;;;;;;5.18;1.20;;;14.40;99.90;;;;;;6272751;28;20041;-82
2023/11/19 16:12:48;;;;;;;4.30;1.33;;;14.30;99.90;;;;;;6275308;28;20098;-80
2023/11/19 16:15:50;;;;;;;3.60;1.42;;;14.30;99.90;;;;;;6269653;28;20057;-80
2023/11/19 16:18:51;;;;;;;1.83;1.20;;;14.40;99.90;;;;;;6287311;28;20541;-80
2023/11/19 16:21:53;;;;;;;4.15;1.58;;;14.40;99.90;;;;;;6277316;28;20056;-81
2023/11/19 16:24:56;;;;;;;2.95;1.27;;;14.40;99.90;;;;;;6274427;28;20045;-80
2023/11/19 16:27:58;;;;;;;3.60;1.15;;;14.50;99.90;;;;;;6281371;28;20049;-79
2023/11/19 16:31:00;;;;;;;3.28;1.00;;;14.50;99.90;;;;;;6281539;28;20421;-79
2023/11/19 16:34:01;;;;;;;3.33;1.50;;;14.50;99.90;;;;;;6279696;28;20064;-82
2023/11/19 16:37:06;;;;;;;7.63;1.52;;;14.40;99.90;;;;;;6280288;28;20041;-81
2023/11/19 16:40:11;;;;;;;2.92;0.93;;;14.30;99.90;;;;;;6274967;28;20049;-81
2023/11/19 16:43:13;;;;;;;2.97;1.40;;;14.20;99.90;;;;;;6276194;28;20057;-81
2023/11/19 16:46:14;;;;;;;2.15;1.77;;;14.20;99.90;;;;;;6274028;28;20057;-83
2023/11/19 16:49:16;;;;;;;1.98;1.17;;;14.10;99.90;;;;;;6275796;28;20041;-84
2023/11/19 16:52:18;;;;;;;6.30;1.83;;;14.20;99.90;;;;;;6273073;28;20072;-83
2023/11/19 16:55:21;;;;;;;3.83;1.73;;;14.20;99.90;;;;;;6277749;28;20116;-83